< < Back
Terminal Aerodrome Forecast


Current Version              Previous Versions:   1  2  3  4  5  6  7  8  9  

Terminal Aerodrome Forecast

309
FTUS42 KTAE 271720
TAFVLD
TAF
KVLD 271720Z 2718/2818 09008KT P6SM VCSH BKN035
     FM280000 VRB03KT P6SM SCT060=

Latest METAR

896
SAUS70 KWBC 272356
MTRVLD
METAR KVLD 272353Z 11007KT 10SM CLR 29/24 A2998 RMK AO2 SLP159 60000
T02940239 10328 20294 53003


USA.gov is the U.S. government's official web portal to all federal, state and local government web resources and services.